sensor_id;sensor_type;location;lat;lon;timestamp;pressure;altitude;pressure_sealevel;temperature;humidity
28911;BME280;16028;42.642;23.310;2022-07-23T00:00:20;94271.25;;;21.44;58.16
28911;BME280;16028;42.642;23.310;2022-07-23T00:02:47;94268.59;;;21.44;58.36
28911;BME280;16028;42.642;23.310;2022-07-23T00:05:15;94275.97;;;21.36;58.28
28911;BME280;16028;42.642;23.310;2022-07-23T00:07:42;94270.50;;;21.31;58.71
28911;BME280;16028;42.642;23.310;2022-07-23T00:10:09;94270.91;;;21.28;58.36
28911;BME280;16028;42.642;23.310;2022-07-23T00:12:37;94280.28;;;21.24;59.22
28911;BME280;16028;42.642;23.310;2022-07-23T00:15:05;94277.03;;;21.22;59.99
28911;BME280;16028;42.642;23.310;2022-07-23T00:17:32;94280.09;;;21.19;59.81
28911;BME280;16028;42.642;23.310;2022-07-23T00:19:59;94280.88;;;21.13;59.94
28911;BME280;16028;42.642;23.310;2022-07-23T00:22:27;94278.00;;;21.07;60.57
28911;BME280;16028;42.642;23.310;2022-07-23T00:24:54;94283.72;;;21.04;60.95
28911;BME280;16028;42.642;23.310;2022-07-23T00:27:21;94294.72;;;21.01;61.37
28911;BME280;16028;42.642;23.310;2022-07-23T00:29:48;94297.34;;;20.95;60.91
28911;BME280;16028;42.642;23.310;2022-07-23T00:32:15;94285.53;;;20.84;60.64
28911;BME280;16028;42.642;23.310;2022-07-23T00:34:42;94293.28;;;20.79;60.76
28911;BME280;16028;42.642;23.310;2022-07-23T00:37:09;94291.84;;;20.77;61.61
28911;BME280;16028;42.642;23.310;2022-07-23T00:39:37;94292.44;;;20.72;62.10
28911;BME280;16028;42.642;23.310;2022-07-23T00:42:04;94286.34;;;20.72;62.28
28911;BME280;16028;42.642;23.310;2022-07-23T00:44:30;94290.03;;;20.71;62.18
28911;BME280;16028;42.642;23.310;2022-07-23T00:46:58;94284.75;;;20.71;63.48
28911;BME280;16028;42.642;23.310;2022-07-23T00:49:27;94279.03;;;20.67;63.03
28911;BME280;16028;42.642;23.310;2022-07-23T00:51:54;94280.44;;;20.63;62.45
28911;BME280;16028;42.642;23.310;2022-07-23T00:54:23;94281.84;;;20.59;63.01
28911;BME280;16028;42.642;23.310;2022-07-23T00:56:52;94283.69;;;20.58;63.52
28911;BME280;16028;42.642;23.310;2022-07-23T00:59:19;94281.25;;;20.57;63.68
28911;BME280;16028;42.642;23.310;2022-07-23T01:01:46;94283.28;;;20.55;63.66
28911;BME280;16028;42.642;23.310;2022-07-23T01:04:14;94280.84;;;20.53;64.54
28911;BME280;16028;42.642;23.310;2022-07-23T01:06:43;94285.94;;;20.48;64.57
28911;BME280;16028;42.642;23.310;2022-07-23T01:09:11;94284.47;;;20.46;64.45
28911;BME280;16028;42.642;23.310;2022-07-23T01:11:38;94282.25;;;20.43;64.41
28911;BME280;16028;42.642;23.310;2022-07-23T01:14:12;94282.03;;;20.38;64.85
28911;BME280;16028;42.642;23.310;2022-07-23T01:16:39;94282.63;;;20.33;64.76
28911;BME280;16028;42.642;23.310;2022-07-23T01:19:06;94274.69;;;20.33;64.63
28911;BME280;16028;42.642;23.310;2022-07-23T01:21:35;94273.09;;;20.32;64.95
28911;BME280;16028;42.642;23.310;2022-07-23T01:24:05;94278.31;;;20.26;65.17
28911;BME280;16028;42.642;23.310;2022-07-23T01:26:32;94273.44;;;20.23;64.76
28911;BME280;16028;42.642;23.310;2022-07-23T01:28:59;94274.06;;;20.25;64.95
28911;BME280;16028;42.642;23.310;2022-07-23T01:31:26;94275.84;;;20.18;64.79
28911;BME280;16028;42.642;23.310;2022-07-23T01:33:53;94275.66;;;20.19;65.04
28911;BME280;16028;42.642;23.310;2022-07-23T01:36:19;94278.06;;;20.14;64.85
28911;BME280;16028;42.642;23.310;2022-07-23T01:38:47;94272.38;;;20.11;64.58
28911;BME280;16028;42.642;23.310;2022-07-23T01:41:15;94274.81;;;20.05;64.05
28911;BME280;16028;42.642;23.310;2022-07-23T01:43:42;94271.97;;;20.00;63.97
28911;BME280;16028;42.642;23.310;2022-07-23T01:46:09;94264.22;;;19.99;64.26
28911;BME280;16028;42.642;23.310;2022-07-23T01:48:36;94272.53;;;19.96;64.34
28911;BME280;16028;42.642;23.310;2022-07-23T01:51:03;94268.47;;;19.93;63.54
28911;BME280;16028;42.642;23.310;2022-07-23T01:53:30;94271.50;;;19.90;64.22
28911;BME280;16028;42.642;23.310;2022-07-23T01:55:57;94266.84;;;19.92;64.29
28911;BME280;16028;42.642;23.310;2022-07-23T01:58:26;94273.13;;;19.91;64.05
28911;BME280;16028;42.642;23.310;2022-07-23T02:00:53;94266.84;;;19.92;63.06
28911;BME280;16028;42.642;23.310;2022-07-23T02:03:20;94272.34;;;19.91;63.03
28911;BME280;16028;42.642;23.310;2022-07-23T02:05:48;94264.59;;;19.89;63.30
28911;BME280;16028;42.642;23.310;2022-07-23T02:08:15;94270.28;;;19.86;63.30
28911;BME280;16028;42.642;23.310;2022-07-23T02:10:42;94274.31;;;19.82;63.69
28911;BME280;16028;42.642;23.310;2022-07-23T02:13:09;94269.03;;;19.82;63.73
28911;BME280;16028;42.642;23.310;2022-07-23T02:15:37;94279.00;;;19.87;63.03
28911;BME280;16028;42.642;23.310;2022-07-23T02:18:04;94277.41;;;19.92;63.75
28911;BME280;16028;42.642;23.310;2022-07-23T02:20:31;94277.59;;;19.97;64.34
28911;BME280;16028;42.642;23.310;2022-07-23T02:22:58;94272.56;;;20.02;64.49
28911;BME280;16028;42.642;23.310;2022-07-23T02:25:25;94276.22;;;20.08;65.18
28911;BME280;16028;42.642;23.310;2022-07-23T02:27:52;94279.69;;;20.08;64.90
28911;BME280;16028;42.642;23.310;2022-07-23T02:30:19;94276.84;;;20.03;64.96
28911;BME280;16028;42.642;23.310;2022-07-23T02:32:47;94272.97;;;19.99;65.22
28911;BME280;16028;42.642;23.310;2022-07-23T02:35:14;94277.59;;;19.97;66.34
28911;BME280;16028;42.642;23.310;2022-07-23T02:37:40;94278.00;;;19.94;66.01
28911;BME280;16028;42.642;23.310;2022-07-23T02:40:08;94283.50;;;19.93;64.81
28911;BME280;16028;42.642;23.310;2022-07-23T02:42:35;94281.44;;;19.88;64.48
28911;BME280;16028;42.642;23.310;2022-07-23T02:45:02;94282.44;;;19.81;64.14
28911;BME280;16028;42.642;23.310;2022-07-23T02:47:29;94283.03;;;19.76;64.40
28911;BME280;16028;42.642;23.310;2022-07-23T02:49:58;94279.97;;;19.73;64.62
28911;BME280;16028;42.642;23.310;2022-07-23T02:52:25;94286.44;;;19.70;64.60
28911;BME280;16028;42.642;23.310;2022-07-23T02:54:52;94281.56;;;19.67;65.13
28911;BME280;16028;42.642;23.310;2022-07-23T02:57:18;94286.22;;;19.65;65.67
28911;BME280;16028;42.642;23.310;2022-07-23T02:59:45;94285.59;;;19.63;65.65
28911;BME280;16028;42.642;23.310;2022-07-23T03:02:12;94298.38;;;19.60;65.33
28911;BME280;16028;42.642;23.310;2022-07-23T03:04:39;94298.31;;;19.53;65.87
28911;BME280;16028;42.642;23.310;2022-07-23T03:07:09;94298.28;;;19.46;66.33
28911;BME280;16028;42.642;23.310;2022-07-23T03:09:35;94310.25;;;19.42;66.56
28911;BME280;16028;42.642;23.310;2022-07-23T03:12:03;94298.28;;;19.40;66.40
28911;BME280;16028;42.642;23.310;2022-07-23T03:14:29;94308.16;;;19.38;66.25
28911;BME280;16028;42.642;23.310;2022-07-23T03:16:56;94308.38;;;19.36;66.77
28911;BME280;16028;42.642;23.310;2022-07-23T03:19:25;94303.88;;;19.37;66.69
28911;BME280;16028;42.642;23.310;2022-07-23T03:21:51;94317.91;;;19.37;67.43
28911;BME280;16028;42.642;23.310;2022-07-23T03:24:20;94313.81;;;19.35;67.95
28911;BME280;16028;42.642;23.310;2022-07-23T03:26:49;94319.53;;;19.38;68.66
28911;BME280;16028;42.642;23.310;2022-07-23T03:29:15;94311.41;;;19.33;68.69
28911;BME280;16028;42.642;23.310;2022-07-23T03:31:42;94317.28;;;19.35;69.10
28911;BME280;16028;42.642;23.310;2022-07-23T03:34:09;94311.78;;;19.30;68.88
28911;BME280;16028;42.642;23.310;2022-07-23T03:36:36;94315.59;;;19.28;69.21
28911;BME280;16028;42.642;23.310;2022-07-23T03:39:05;94318.25;;;19.28;69.60
28911;BME280;16028;42.642;23.310;2022-07-23T03:41:33;94323.72;;;19.26;69.66
28911;BME280;16028;42.642;23.310;2022-07-23T03:44:00;94321.25;;;19.25;70.17
28911;BME280;16028;42.642;23.310;2022-07-23T03:46:27;94320.44;;;19.24;69.89
28911;BME280;16028;42.642;23.310;2022-07-23T03:48:53;94321.25;;;19.25;69.49
28911;BME280;16028;42.642;23.310;2022-07-23T03:51:20;94324.94;;;19.24;69.80
28911;BME280;16028;42.642;23.310;2022-07-23T03:53:47;94318.00;;;19.23;69.95
28911;BME280;16028;42.642;23.310;2022-07-23T03:56:14;94324.94;;;19.24;70.16
28911;BME280;16028;42.642;23.310;2022-07-23T03:58:42;94328.19;;;19.26;71.65
28911;BME280;16028;42.642;23.310;2022-07-23T04:01:09;94327.56;;;19.24;73.45
28911;BME280;16028;42.642;23.310;2022-07-23T04:03:37;94320.66;;;19.23;74.33
28911;BME280;16028;42.642;23.310;2022-07-23T04:06:04;94325.09;;;19.22;75.03
28911;BME280;16028;42.642;23.310;2022-07-23T04:08:31;94320.66;;;19.23;75.76
28911;BME280;16028;42.642;23.310;2022-07-23T04:10:58;94313.34;;;19.25;76.67
28911;BME280;16028;42.642;23.310;2022-07-23T04:13:25;94320.69;;;19.29;77.17
28911;BME280;16028;42.642;23.310;2022-07-23T04:15:53;94325.59;;;19.32;77.96
28911;BME280;16028;42.642;23.310;2022-07-23T04:18:19;94324.81;;;19.38;78.12
28911;BME280;16028;42.642;23.310;2022-07-23T04:20:50;94321.63;;;19.43;78.12
28911;BME280;16028;42.642;23.310;2022-07-23T04:23:17;94326.38;;;19.54;78.40
28911;BME280;16028;42.642;23.310;2022-07-23T04:25:44;94336.38;;;19.65;78.63
28911;BME280;16028;42.642;23.310;2022-07-23T04:28:10;94331.94;;;19.72;76.64
28911;BME280;16028;42.642;23.310;2022-07-23T04:30:37;94330.78;;;19.81;73.81
28911;BME280;16028;42.642;23.310;2022-07-23T04:33:05;94339.34;;;19.90;73.84
28911;BME280;16028;42.642;23.310;2022-07-23T04:35:33;94331.47;;;19.96;73.71
28911;BME280;16028;42.642;23.310;2022-07-23T04:38:00;94337.78;;;20.02;73.34
28911;BME280;16028;42.642;23.310;2022-07-23T04:40:27;94335.56;;;20.05;73.98
28911;BME280;16028;42.642;23.310;2022-07-23T04:42:53;94335.16;;;20.08;75.02
28911;BME280;16028;42.642;23.310;2022-07-23T04:45:20;94336.00;;;20.16;75.60
28911;BME280;16028;42.642;23.310;2022-07-23T04:47:49;94337.03;;;20.21;72.78
28911;BME280;16028;42.642;23.310;2022-07-23T04:50:17;94338.34;;;20.32;71.73
28911;BME280;16028;42.642;23.310;2022-07-23T04:52:46;94340.38;;;20.43;71.52
28911;BME280;16028;42.642;23.310;2022-07-23T04:55:13;94344.88;;;20.49;70.05
28911;BME280;16028;42.642;23.310;2022-07-23T04:57:40;94345.72;;;20.56;69.84
28911;BME280;16028;42.642;23.310;2022-07-23T05:00:08;94346.59;;;20.83;67.81
28911;BME280;16028;42.642;23.310;2022-07-23T05:02:35;94351.06;;;21.02;67.46
28911;BME280;16028;42.642;23.310;2022-07-23T05:05:02;94342.13;;;21.09;67.83
28911;BME280;16028;42.642;23.310;2022-07-23T05:07:30;94346.00;;;21.20;67.72
28911;BME280;16028;42.642;23.310;2022-07-23T05:09:57;94348.25;;;21.23;66.79
28911;BME280;16028;42.642;23.310;2022-07-23T05:12:24;94344.59;;;21.24;66.51
28911;BME280;16028;42.642;23.310;2022-07-23T05:14:51;94349.47;;;21.34;66.42
28911;BME280;16028;42.642;23.310;2022-07-23T05:17:18;94350.31;;;21.28;67.13
28911;BME280;16028;42.642;23.310;2022-07-23T05:19:45;94346.19;;;21.38;65.65
28911;BME280;16028;42.642;23.310;2022-07-23T05:22:11;94348.41;;;21.61;65.18
28911;BME280;16028;42.642;23.310;2022-07-23T05:24:40;94354.50;;;21.75;66.13
28911;BME280;16028;42.642;23.310;2022-07-23T05:27:08;94360.41;;;21.77;67.01
28911;BME280;16028;42.642;23.310;2022-07-23T05:29:35;94355.09;;;21.83;66.26
28911;BME280;16028;42.642;23.310;2022-07-23T05:32:01;94358.16;;;22.00;66.40
28911;BME280;16028;42.642;23.310;2022-07-23T05:34:28;94359.13;;;22.12;67.52
28911;BME280;16028;42.642;23.310;2022-07-23T05:36:55;94350.56;;;22.10;65.55
28911;BME280;16028;42.642;23.310;2022-07-23T05:39:22;94353.44;;;22.02;66.09
28911;BME280;16028;42.642;23.310;2022-07-23T05:41:50;94353.00;;;22.05;66.11
28911;BME280;16028;42.642;23.310;2022-07-23T05:44:17;94355.00;;;22.23;64.60
28911;BME280;16028;42.642;23.310;2022-07-23T05:46:44;94350.59;;;22.48;64.40
28911;BME280;16028;42.642;23.310;2022-07-23T05:49:10;94358.03;;;22.77;63.64
28911;BME280;16028;42.642;23.310;2022-07-23T05:51:37;94346.00;;;23.06;60.70
28911;BME280;16028;42.642;23.310;2022-07-23T05:54:04;94344.56;;;23.35;56.81
28911;BME280;16028;42.642;23.310;2022-07-23T05:56:31;94341.25;;;23.64;57.13
28911;BME280;16028;42.642;23.310;2022-07-23T05:58:59;94344.63;;;23.71;59.77
28911;BME280;16028;42.642;23.310;2022-07-23T06:01:26;94343.34;;;23.80;58.67
28911;BME280;16028;42.642;23.310;2022-07-23T06:03:52;94351.00;;;24.06;54.37
28911;BME280;16028;42.642;23.310;2022-07-23T06:06:19;94348.88;;;24.51;52.30
28911;BME280;16028;42.642;23.310;2022-07-23T06:08:46;94338.06;;;24.64;53.84
28911;BME280;16028;42.642;23.310;2022-07-23T06:11:13;94341.34;;;24.78;54.74
28911;BME280;16028;42.642;23.310;2022-07-23T06:13:40;94334.69;;;24.87;54.31
28911;BME280;16028;42.642;23.310;2022-07-23T06:16:08;94335.91;;;25.03;52.33
28911;BME280;16028;42.642;23.310;2022-07-23T06:18:35;94335.81;;;25.21;51.53
28911;BME280;16028;42.642;23.310;2022-07-23T06:21:02;94341.28;;;25.38;51.74
28911;BME280;16028;42.642;23.310;2022-07-23T06:23:28;94336.59;;;25.51;50.77
28911;BME280;16028;42.642;23.310;2022-07-23T06:25:55;94338.44;;;25.74;50.50
28911;BME280;16028;42.642;23.310;2022-07-23T06:28:22;94334.63;;;25.70;51.74
28911;BME280;16028;42.642;23.310;2022-07-23T06:30:49;94337.97;;;25.77;48.54
28911;BME280;16028;42.642;23.310;2022-07-23T06:33:17;94337.75;;;25.90;49.79
28911;BME280;16028;42.642;23.310;2022-07-23T06:35:44;94334.13;;;25.96;49.30
28911;BME280;16028;42.642;23.310;2022-07-23T06:38:11;94336.66;;;26.14;49.57
28911;BME280;16028;42.642;23.310;2022-07-23T06:40:38;94347.09;;;26.27;49.14
28911;BME280;16028;42.642;23.310;2022-07-23T06:43:05;94343.13;;;26.30;49.63
28911;BME280;16028;42.642;23.310;2022-07-23T06:45:31;94345.03;;;26.18;49.19
28911;BME280;16028;42.642;23.310;2022-07-23T06:47:58;94334.47;;;26.00;49.69
28911;BME280;16028;42.642;23.310;2022-07-23T06:50:26;94326.09;;;26.31;46.29
28911;BME280;16028;42.642;23.310;2022-07-23T06:52:53;94329.19;;;26.51;47.13
28911;BME280;16028;42.642;23.310;2022-07-23T06:55:20;94334.84;;;26.55;48.42
28911;BME280;16028;42.642;23.310;2022-07-23T06:57:47;94329.53;;;26.83;48.39
28911;BME280;16028;42.642;23.310;2022-07-23T07:00:14;94328.38;;;27.07;47.12
28911;BME280;16028;42.642;23.310;2022-07-23T07:02:41;94328.63;;;27.22;47.11
28911;BME280;16028;42.642;23.310;2022-07-23T07:05:07;94325.44;;;27.25;47.05
28911;BME280;16028;42.642;23.310;2022-07-23T07:07:36;94333.31;;;27.32;46.93
28911;BME280;16028;42.642;23.310;2022-07-23T07:10:03;94326.69;;;27.34;46.80
28911;BME280;16028;42.642;23.310;2022-07-23T07:12:29;94330.94;;;27.19;45.56
28911;BME280;16028;42.642;23.310;2022-07-23T07:14:56;94324.53;;;26.87;44.25
28911;BME280;16028;42.642;23.310;2022-07-23T07:17:23;94320.41;;;26.67;44.75
28911;BME280;16028;42.642;23.310;2022-07-23T07:19:50;94327.13;;;26.42;45.13
28911;BME280;16028;42.642;23.310;2022-07-23T07:22:16;94328.56;;;26.21;46.41
28911;BME280;16028;42.642;23.310;2022-07-23T07:24:45;94326.09;;;26.08;46.43
28911;BME280;16028;42.642;23.310;2022-07-23T07:27:11;94324.72;;;26.05;47.23
28911;BME280;16028;42.642;23.310;2022-07-23T07:29:38;94331.56;;;26.24;47.57
28911;BME280;16028;42.642;23.310;2022-07-23T07:32:05;94313.63;;;26.48;45.98
28911;BME280;16028;42.642;23.310;2022-07-23T07:34:32;94311.47;;;26.62;46.35
28911;BME280;16028;42.642;23.310;2022-07-23T07:36:58;94310.28;;;26.69;45.34
28911;BME280;16028;42.642;23.310;2022-07-23T07:39:25;94312.47;;;26.72;46.35
28911;BME280;16028;42.642;23.310;2022-07-23T07:41:53;94307.63;;;26.69;46.38
28911;BME280;16028;42.642;23.310;2022-07-23T07:44:20;94307.22;;;26.77;45.74
28911;BME280;16028;42.642;23.310;2022-07-23T07:46:47;94310.38;;;26.86;46.05
28911;BME280;16028;42.642;23.310;2022-07-23T07:49:14;94308.75;;;26.85;45.20
28911;BME280;16028;42.642;23.310;2022-07-23T07:51:42;94319.78;;;26.77;46.63
28911;BME280;16028;42.642;23.310;2022-07-23T07:54:09;94306.06;;;26.57;46.96
28911;BME280;16028;42.642;23.310;2022-07-23T07:56:36;94313.38;;;26.50;47.89
28911;BME280;16028;42.642;23.310;2022-07-23T07:59:04;94305.84;;;26.75;46.10
28911;BME280;16028;42.642;23.310;2022-07-23T08:01:31;94298.53;;;26.82;44.90
28911;BME280;16028;42.642;23.310;2022-07-23T08:03:57;94303.91;;;26.70;46.40
28911;BME280;16028;42.642;23.310;2022-07-23T08:06:24;94300.03;;;26.78;44.93
28911;BME280;16028;42.642;23.310;2022-07-23T08:08:51;94311.53;;;26.78;46.71
28911;BME280;16028;42.642;23.310;2022-07-23T08:11:18;94300.66;;;26.68;46.88
28911;BME280;16028;42.642;23.310;2022-07-23T08:13:45;94300.94;;;26.83;46.24
28911;BME280;16028;42.642;23.310;2022-07-23T08:16:13;94297.72;;;26.81;47.32
28911;BME280;16028;42.642;23.310;2022-07-23T08:18:40;94296.69;;;26.71;46.87
28911;BME280;16028;42.642;23.310;2022-07-23T08:21:07;94296.63;;;26.66;46.44
28911;BME280;16028;42.642;23.310;2022-07-23T08:23:34;94299.84;;;26.68;46.90
28911;BME280;16028;42.642;23.310;2022-07-23T08:26:01;94292.91;;;26.67;47.35
28911;BME280;16028;42.642;23.310;2022-07-23T08:28:27;94288.53;;;26.77;47.61
28911;BME280;16028;42.642;23.310;2022-07-23T08:30:54;94295.63;;;26.83;47.30
28911;BME280;16028;42.642;23.310;2022-07-23T08:33:23;94296.09;;;27.09;45.97
28911;BME280;16028;42.642;23.310;2022-07-23T08:35:50;94290.59;;;27.15;46.04
28911;BME280;16028;42.642;23.310;2022-07-23T08:38:21;94287.00;;;27.10;46.68
28911;BME280;16028;42.642;23.310;2022-07-23T08:40:49;94287.56;;;27.28;44.89
28911;BME280;16028;42.642;23.310;2022-07-23T08:43:18;94287.00;;;27.26;46.05
28911;BME280;16028;42.642;23.310;2022-07-23T08:45:48;94287.66;;;27.33;45.67
28911;BME280;16028;42.642;23.310;2022-07-23T08:48:17;94282.31;;;27.33;46.52
28911;BME280;16028;42.642;23.310;2022-07-23T08:50:48;94288.56;;;27.56;44.98
28911;BME280;16028;42.642;23.310;2022-07-23T08:53:16;94287.78;;;27.77;44.74
28911;BME280;16028;42.642;23.310;2022-07-23T08:55:43;94284.72;;;27.68;45.04
28911;BME280;16028;42.642;23.310;2022-07-23T08:58:11;94282.78;;;27.64;45.78
28911;BME280;16028;42.642;23.310;2022-07-23T09:00:38;94279.56;;;27.62;46.19
28911;BME280;16028;42.642;23.310;2022-07-23T09:03:04;94280.19;;;27.69;45.92
28911;BME280;16028;42.642;23.310;2022-07-23T09:05:31;94285.06;;;27.72;45.58
28911;BME280;16028;42.642;23.310;2022-07-23T09:08:10;94278.78;;;27.83;44.64
28911;BME280;16028;42.642;23.310;2022-07-23T09:10:50;94275.28;;;27.82;46.44
28911;BME280;16028;42.642;23.310;2022-07-23T09:13:34;94270.25;;;27.86;46.20
28911;BME280;16028;42.642;23.310;2022-07-23T09:16:03;94277.88;;;27.94;45.99
28911;BME280;16028;42.642;23.310;2022-07-23T09:18:33;94278.41;;;27.96;45.03
28911;BME280;16028;42.642;23.310;2022-07-23T09:21:08;94276.38;;;28.03;44.90
28911;BME280;16028;42.642;23.310;2022-07-23T09:23:41;94276.13;;;28.05;45.43
28911;BME280;16028;42.642;23.310;2022-07-23T09:26:20;94273.03;;;28.13;44.39
28911;BME280;16028;42.642;23.310;2022-07-23T09:28:51;94278.78;;;28.43;40.71
28911;BME280;16028;42.642;23.310;2022-07-23T09:31:19;94271.22;;;28.62;40.28
28911;BME280;16028;42.642;23.310;2022-07-23T09:33:46;94268.63;;;28.72;41.50
28911;BME280;16028;42.642;23.310;2022-07-23T09:36:13;94262.84;;;28.80;40.32
28911;BME280;16028;42.642;23.310;2022-07-23T09:38:50;94261.78;;;28.81;40.08
28911;BME280;16028;42.642;23.310;2022-07-23T09:41:17;94264.97;;;28.78;39.70
28911;BME280;16028;42.642;23.310;2022-07-23T09:43:44;94254.31;;;28.83;38.07
28911;BME280;16028;42.642;23.310;2022-07-23T09:46:19;94261.03;;;29.17;36.56
28911;BME280;16028;42.642;23.310;2022-07-23T09:48:46;94256.22;;;29.19;34.66
28911;BME280;16028;42.642;23.310;2022-07-23T09:51:13;94254.44;;;29.30;31.96
28911;BME280;16028;42.642;23.310;2022-07-23T09:53:41;94254.81;;;29.38;31.47
28911;BME280;16028;42.642;23.310;2022-07-23T09:56:11;94261.16;;;29.32;32.65
28911;BME280;16028;42.642;23.310;2022-07-23T09:58:40;94251.22;;;29.28;33.60
28911;BME280;16028;42.642;23.310;2022-07-23T10:01:15;94248.56;;;29.33;33.87
28911;BME280;16028;42.642;23.310;2022-07-23T10:03:43;94248.41;;;29.45;31.99
28911;BME280;16028;42.642;23.310;2022-07-23T10:06:10;94240.38;;;29.50;32.03
28911;BME280;16028;42.642;23.310;2022-07-23T10:08:41;94244.78;;;29.66;31.33
28911;BME280;16028;42.642;23.310;2022-07-23T10:11:10;94239.19;;;29.72;30.61
28911;BME280;16028;42.642;23.310;2022-07-23T10:13:38;94237.31;;;29.73;31.70
28911;BME280;16028;42.642;23.310;2022-07-23T10:16:22;94238.66;;;29.70;33.14
28911;BME280;16028;42.642;23.310;2022-07-23T10:18:49;94236.50;;;29.72;33.63
28911;BME280;16028;42.642;23.310;2022-07-23T10:21:21;94233.06;;;29.77;33.03
28911;BME280;16028;42.642;23.310;2022-07-23T10:24:01;94227.78;;;29.97;33.15
28911;BME280;16028;42.642;23.310;2022-07-23T10:26:45;94225.69;;;29.99;32.47
28911;BME280;16028;42.642;23.310;2022-07-23T10:29:23;94224.09;;;30.08;30.75
28911;BME280;16028;42.642;23.310;2022-07-23T10:32:00;94228.94;;;30.11;31.23
28911;BME280;16028;42.642;23.310;2022-07-23T10:34:38;94221.41;;;30.13;31.55
28911;BME280;16028;42.642;23.310;2022-07-23T10:37:12;94216.66;;;30.35;28.49
28911;BME280;16028;42.642;23.310;2022-07-23T10:39:43;94215.91;;;30.45;30.58
28911;BME280;16028;42.642;23.310;2022-07-23T10:42:13;94215.13;;;30.50;30.55
28911;BME280;16028;42.642;23.310;2022-07-23T10:44:42;94205.47;;;30.54;30.68
28911;BME280;16028;42.642;23.310;2022-07-23T10:47:10;94211.94;;;30.68;28.47
28911;BME280;16028;42.642;23.310;2022-07-23T10:49:51;94204.44;;;30.85;27.86
28911;BME280;16028;42.642;23.310;2022-07-23T10:52:22;94197.44;;;30.79;28.92
28911;BME280;16028;42.642;23.310;2022-07-23T10:54:51;94189.91;;;30.76;29.11
28911;BME280;16028;42.642;23.310;2022-07-23T10:57:21;94187.53;;;31.10;26.57
28911;BME280;16028;42.642;23.310;2022-07-23T11:00:15;94187.78;;;31.28;26.26
28911;BME280;16028;42.642;23.310;2022-07-23T11:02:44;94186.66;;;31.44;24.60
28911;BME280;16028;42.642;23.310;2022-07-23T11:05:13;94178.88;;;31.43;26.25
28911;BME280;16028;42.642;23.310;2022-07-23T11:10:54;94172.19;;;31.25;30.05
28911;BME280;16028;42.642;23.310;2022-07-23T11:13:49;94170.56;;;31.34;27.47
28911;BME280;16028;42.642;23.310;2022-07-23T11:16:23;94169.47;;;31.51;29.38
28911;BME280;16028;42.642;23.310;2022-07-23T11:19:17;94172.66;;;31.63;31.30
28911;BME280;16028;42.642;23.310;2022-07-23T11:21:48;94169.69;;;31.74;26.67
28911;BME280;16028;42.642;23.310;2022-07-23T11:24:19;94163.25;;;31.65;27.14
28911;BME280;16028;42.642;23.310;2022-07-23T11:26:52;94160.56;;;31.60;27.34
28911;BME280;16028;42.642;23.310;2022-07-23T11:29:43;94153.25;;;31.81;29.12
28911;BME280;16028;42.642;23.310;2022-07-23T11:32:35;94151.00;;;31.98;23.70
28911;BME280;16028;42.642;23.310;2022-07-23T11:35:19;94153.19;;;31.96;26.19
28911;BME280;16028;42.642;23.310;2022-07-23T11:37:47;94154.75;;;32.02;26.90
28911;BME280;16028;42.642;23.310;2022-07-23T11:40:15;94146.13;;;32.10;27.10
28911;BME280;16028;42.642;23.310;2022-07-23T11:42:52;94149.56;;;32.21;27.20
28911;BME280;16028;42.642;23.310;2022-07-23T11:45:21;94141.69;;;32.29;23.42
28911;BME280;16028;42.642;23.310;2022-07-23T11:47:49;94136.50;;;32.43;21.60
28911;BME280;16028;42.642;23.310;2022-07-23T11:50:15;94133.06;;;32.37;22.96
28911;BME280;16028;42.642;23.310;2022-07-23T11:52:42;94137.13;;;32.35;24.33
28911;BME280;16028;42.642;23.310;2022-07-23T11:55:11;94139.50;;;32.41;25.08
28911;BME280;16028;42.642;23.310;2022-07-23T11:57:41;94130.28;;;32.47;26.66
28911;BME280;16028;42.642;23.310;2022-07-23T12:00:09;94134.53;;;32.59;25.31
28911;BME280;16028;42.642;23.310;2022-07-23T12:02:38;94130.16;;;32.68;24.23
28911;BME280;16028;42.642;23.310;2022-07-23T12:05:06;94127.69;;;32.76;26.34
28911;BME280;16028;42.642;23.310;2022-07-23T12:07:36;94129.25;;;32.82;27.52
28911;BME280;16028;42.642;23.310;2022-07-23T12:10:08;94126.22;;;32.89;23.28
28911;BME280;16028;42.642;23.310;2022-07-23T12:12:37;94126.25;;;32.84;23.70
28911;BME280;16028;42.642;23.310;2022-07-23T12:15:05;94126.81;;;32.81;23.50
28911;BME280;16028;42.642;23.310;2022-07-23T12:17:36;94105.31;;;32.76;23.52
28911;BME280;16028;42.642;23.310;2022-07-23T12:20:06;94112.78;;;32.84;21.99
28911;BME280;16028;42.642;23.310;2022-07-23T12:22:35;94113.22;;;32.96;21.48
28911;BME280;16028;42.642;23.310;2022-07-23T12:25:07;94112.44;;;32.90;21.88
28911;BME280;16028;42.642;23.310;2022-07-23T12:27:35;94110.00;;;32.94;20.72
28911;BME280;16028;42.642;23.310;2022-07-23T12:30:16;94108.41;;;32.93;24.85
28911;BME280;16028;42.642;23.310;2022-07-23T12:32:44;94105.59;;;33.03;21.88
28911;BME280;16028;42.642;23.310;2022-07-23T12:35:13;94106.63;;;33.07;24.50
28911;BME280;16028;42.642;23.310;2022-07-23T12:37:42;94110.03;;;33.23;24.10
28911;BME280;16028;42.642;23.310;2022-07-23T12:40:20;94098.03;;;33.34;25.12
28911;BME280;16028;42.642;23.310;2022-07-23T12:42:48;94092.97;;;33.51;17.98
28911;BME280;16028;42.642;23.310;2022-07-23T12:45:15;94092.34;;;33.35;21.78
28911;BME280;16028;42.642;23.310;2022-07-23T12:47:58;94089.84;;;33.44;24.56
28911;BME280;16028;42.642;23.310;2022-07-23T12:50:38;94087.25;;;33.58;24.35
28911;BME280;16028;42.642;23.310;2022-07-23T12:53:14;94085.25;;;33.68;24.27
28911;BME280;16028;42.642;23.310;2022-07-23T12:55:42;94087.59;;;33.75;19.35
28911;BME280;16028;42.642;23.310;2022-07-23T12:58:12;94095.81;;;33.65;21.27
28911;BME280;16028;42.642;23.310;2022-07-23T13:03:37;94081.75;;;33.68;21.93